RHO weather

Diagoras Airport
Rodes Island, Dodecanese, Greece

Public forecast

Using degrees Celsius for public forecast. Weather courtesy of forecast.io.

Current aviation weather report (METAR) for Diagoras Airport

Retrieved 2020/02/17 15:20 UTC (0 seconds ago):

LGRP 171520Z 24007KT CAVOK 16/08 Q1018 NOSIG

Aviation forecast (TAF) for Diagoras Airport

Retrieved 2020/02/17 12:14 UTC (3 hours ago):

TAF LGRP 171100Z 1712/1812 VRB05KT 9999 FEW018 BECMG 1714/1716 25010KT BECMG 1804/1806 10010KT PROB30 TEMPO 1809/1812 5000 RA SCT018 BKN025